ADDS METAR Data INFO
IDs: Format: Raw Decoded Include TAF

Data at: 2229 UTC 11 Dec 2017

KFVX 112215Z AUTO 00000KT 10SM CLR 05/00 A2996 RMK AO2 T00530000
KFVX 112155Z AUTO 17003KT 10SM SCT100 06/00 A2997 RMK AO2 T00610000
KFVX 112135Z AUTO 20003KT 10SM OVC100 08/M01 A2998 RMK AO2 T00831007
KFVX 112115Z AUTO 20005KT 10SM SCT100 09/00 A2997 RMK AO2 T00861004
KFVX 112055Z AUTO 19007KT 10SM CLR 09/M01 A2998 RMK AO2 T00931008
KFVX 112035Z AUTO 21006KT 10SM CLR 10/M01 A2999 RMK AO2 T00961007
KFVX 112015Z AUTO 23005KT 10SM CLR 10/M02 A3000 RMK AO2 T01001017
KFVX 111955Z AUTO 18007KT 10SM CLR 10/M01 A2998 RMK AO2 T00961010
KFVX 111935Z AUTO 24004KT 10SM CLR 10/M01 A3000 RMK AO2 T00971014
KFVX 111915Z AUTO 24006KT 10SM CLR 10/M01 A3000 RMK AO2 T00971013
KFVX 111855Z AUTO 21006KT 10SM CLR 09/M02 A3000 RMK AO2 T00921016
KFVX 111835Z AUTO 22006KT 10SM CLR 09/M01 A3001 RMK AO2 T00931014
KFVX 111815Z AUTO 20006KT 10SM CLR 09/M01 A3001 RMK AO2 T00881012
KFVX 111755Z AUTO 18004KT 10SM CLR 09/M02 A3001 RMK AO2 60007 T00891020 10090 21038
KFVX 111735Z AUTO 23004KT 10SM CLR 09/M02 A3002 RMK AO2 T00861023
KFVX 111715Z AUTO 20006KT 10SM CLR 09/M02 A3003 RMK AO2 T00871022
KFVX 111655Z AUTO 24004KT 10SM CLR 09/M02 A3004 RMK AO2 P0002 T00861021
KFVX 111635Z AUTO 25003KT 10SM CLR 08/M02 A3006 RMK AO2 P0002 T00831019
KFVX 111615Z AUTO 25006KT 10SM CLR 08/M02 A3007 RMK AO2 P0001 T00811018
KFVX 111555Z AUTO 25005KT 10SM CLR 08/M02 A3008 RMK AO2 P0004 T00771021
KFVX 111535Z AUTO 25006KT 10SM CLR 07/M02 A3009 RMK AO2 P0002 T00731018
KFVX 111515Z AUTO 29004KT 10SM CLR 07/M02 A3010 RMK AO2 P0001 T00671017
KFVX 111455Z AUTO 24004KT 10SM CLR 06/M02 A3011 RMK AO2 P0001 60001 T00561017
KFVX 111435Z AUTO 24004KT 10SM CLR 04/M02 A3011 RMK AO2 T00411018
KFVX 111415Z AUTO 24004KT 10SM CLR 03/M02 A3011 RMK AO2 T00291020
KFVX 111355Z AUTO 23003KT 10SM CLR 02/M02 A3010 RMK AO2 T00151022
KFVX 111335Z AUTO 23003KT 10SM CLR M01/M02 A3010 RMK AO2 T10111025
KFVX 111315Z AUTO 22003KT 10SM CLR 00/M03 A3010 RMK AO2 T00001029
KFVX 111255Z AUTO 24003KT 10SM CLR M02/M02 A3009 RMK AO2 T10171021
KFVX 111235Z AUTO 00000KT 10SM CLR M03/M03 A3009 RMK AO2 T10331033
KFVX 111215Z AUTO 22004KT 10SM CLR M02/M02 A3009 RMK AO2 T10241024
KFVX 111155Z AUTO 00000KT 10SM CLR M03/M03 A3008 RMK AO2 70047 T10261026 10010 21034
KFVX 111135Z AUTO 00000KT 10SM CLR M02/M03 A3007 RMK AO2 T10241035
KFVX 111115Z AUTO 24004KT 10SM CLR M01/M03 A3006 RMK AO2 T10121030
KFVX 111055Z AUTO 20004KT 10SM CLR M02/M02 A3006 RMK AO2 T10181025
KFVX 111035Z AUTO 18003KT 10SM CLR M02/M03 A3006 RMK AO2 T10251026
KFVX 111015Z AUTO 20003KT 10SM CLR M02/M03 A3006 RMK AO2 T10171027
KFVX 110955Z AUTO 18003KT 10SM CLR M02/M03 A3005 RMK AO2 T10171029
KFVX 110935Z AUTO 20004KT 10SM CLR M01/M03 A3005 RMK AO2 T10121027
KFVX 110915Z AUTO 21003KT 10SM CLR M01/M03 A3005 RMK AO2 T10111026
KFVX 110855Z AUTO 21003KT 10SM CLR M01/M03 A3005 RMK AO2 T10071026
KFVX 110835Z AUTO 21004KT 10SM CLR M01/M03 A3005 RMK AO2 T10071026
KFVX 110815Z AUTO 22004KT 10SM CLR 00/M03 A3005 RMK AO2 T10051026
KFVX 110755Z AUTO 20004KT 10SM CLR 00/M02 A3005 RMK AO2 T10031025
KFVX 110735Z AUTO 21004KT 10SM CLR 00/M02 A3005 RMK AO2 T00001025
KFVX 110715Z AUTO 21005KT 10SM CLR 00/M02 A3005 RMK AO2 T00011023
KFVX 110655Z AUTO 22005KT 10SM CLR 00/M02 A3005 RMK AO2 T00041024
KFVX 110635Z AUTO 22007KT 10SM CLR 01/M02 A3005 RMK AO2 T00071022
KFVX 110615Z AUTO 22005KT 10SM CLR 01/M02 A3006 RMK AO2 T00091023
KFVX 110555Z AUTO 21004KT 10SM SCT090 01/M02 A3005 RMK AO2 T00101024 10020 21002
KFVX 110535Z AUTO 22005KT 10SM SCT100 01/M02 A3006 RMK AO2 T00141025
KFVX 110515Z AUTO 22006KT 10SM BKN100 02/M02 A3006 RMK AO2 T00191025
KFVX 110455Z AUTO 22005KT 10SM SCT100 02/M02 A3007 RMK AO2 T00171025 400501035
KFVX 110435Z AUTO 22004KT 10SM BKN100 02/M02 A3007 RMK AO2 T00161022
KFVX 110415Z AUTO 20005KT 10SM OVC100 02/M02 A3006 RMK AO2 T00201020
KFVX 110355Z AUTO 21006KT 10SM OVC100 02/M02 A3006 RMK AO2 T00201020
KFVX 110335Z AUTO 21006KT 10SM OVC100 02/M02 A3007 RMK AO2 T00201016
KFVX 110315Z AUTO 21007KT 10SM OVC100 02/M02 A3008 RMK AO2 T00201016
KFVX 110255Z AUTO 21007KT 10SM OVC100 02/M02 A3008 RMK AO2 T00201016
KFVX 110235Z AUTO 20007KT 10SM OVC100 02/M01 A3008 RMK AO2 T00181015
KFVX 110215Z AUTO 21004KT 10SM OVC100 01/M01 A3008 RMK AO2 T00121012
KFVX 110155Z AUTO 19004KT 10SM OVC100 01/M01 A3008 RMK AO2 T00061009
KFVX 110135Z AUTO 19004KT 10SM OVC100 00/M01 A3008 RMK AO2 T00011012
KFVX 110115Z AUTO 00000KT 10SM OVC100 00/M01 A3008 RMK AO2 T00001014
KFVX 110055Z AUTO 00000KT 10SM BKN100 00/M02 A3008 RMK AO2 T10021019
KFVX 110035Z AUTO 18003KT 10SM CLR 00/M02 A3008 RMK AO2 T00011020
KFVX 110015Z AUTO 19005KT 10SM CLR 00/M02 A3008 RMK AO2 T00031021
KFVX 102355Z AUTO 18003KT 10SM CLR 01/M02 A3008 RMK AO2 60015 T00071021 10050 20005
KFVX 102335Z AUTO 20005KT 10SM CLR 01/M02 A3008 RMK AO2 T00051022
KFVX 102315Z AUTO 19004KT 10SM CLR 01/M02 A3008 RMK AO2 T00111022
KFVX 102255Z AUTO 20004KT 10SM CLR 01/M02 A3008 RMK AO2 T00081020
KFVX 102235Z AUTO 19003KT 10SM CLR 01/M02 A3008 RMK AO2 T00111020
KFVX 102215Z AUTO 20004KT 10SM CLR 02/M02 A3008 RMK AO2 T00201022
KFVX 102155Z AUTO 22004KT 10SM CLR 03/M02 A3008 RMK AO2 P0002 T00301025
KFVX 102135Z AUTO 22006KT 10SM CLR 04/M03 A3007 RMK AO2 P0001 T00371026
KFVX 102115Z AUTO 22006KT 10SM CLR 04/M03 A3007 RMK AO2 P0001 T00421028
KFVX 102055Z AUTO 22005KT 10SM CLR 05/M03 A3007 RMK AO2 P0003 60013 T00451028
KFVX 102035Z AUTO 24005KT 10SM CLR 05/M03 A3006 RMK AO2 P0002 T00471030
KFVX 102015Z AUTO 24006KT 10SM CLR 05/M03 A3007 RMK AO2 P0001 T00501029
KFVX 101955Z AUTO 21006KT 10SM CLR 05/M02 A3007 RMK AO2 P0003 T00481025
KFVX 101935Z AUTO 22007KT 10SM CLR 05/M03 A3007 RMK AO2 P0002 T00471028
KFVX 101915Z AUTO 24009KT 10SM CLR 05/M03 A3007 RMK AO2 P0001 T00451032
KFVX 101855Z AUTO 23006KT 10SM SCT038 05/M02 A3007 RMK AO2 P0007 T00451024
KFVX 101835Z AUTO 22007KT 10SM SCT038 05/M02 A3008 RMK AO2 P0005 T00451020
KFVX 101815Z AUTO 22006KT 10SM SCT038 05/M01 A3009 RMK AO2 P0003 T00451015
KFVX 101755Z AUTO 24008KT 10SM BKN036 05/M01 A3009 RMK AO2 P0010 60032 T00451009 10045 21031
KFVX 101735Z AUTO 23008KT 10SM BKN034 04/M01 A3010 RMK AO2 P0006 T00411013
KFVX 101715Z AUTO 24007KT 10SM SCT038 04/M01 A3010 RMK AO2 P0002 T00371007
KFVX 101655Z AUTO 23006KT 10SM SCT038 03/M01 A3011 RMK AO2 P0010 T00341007
KFVX 101635Z AUTO 23006KT 10SM CLR 03/M01 A3012 RMK AO2 P0007 T00301008
KFVX 101615Z AUTO 22006KT 10SM CLR 03/00 A3013 RMK AO2 P0003 T00281004
KFVX 101555Z AUTO 20006KT 10SM CLR 02/00 A3013 RMK AO2 P0007 T00241005
KFVX 101535Z AUTO 22006KT 10SM CLR 02/00 A3013 RMK AO2 P0004 T00211005
KFVX 101515Z AUTO 22006KT 10SM CLR 02/M01 A3013 RMK AO2 P0001 T00171006
KFVX 101455Z AUTO 22005KT 10SM CLR 01/M01 A3012 RMK AO2 P0004 60005 T00101007
KFVX 101435Z AUTO 21004KT 10SM CLR 00/M01 A3011 RMK AO2 P0002 T00021009
KFVX 101415Z AUTO 22004KT 10SM CLR 00/M01 A3011 RMK AO2 P0001 T10011007
KFVX 101355Z AUTO 00000KT 10SM CLR M01/M01 A3010 RMK AO2 P0001 T10071015
KFVX 101335Z AUTO 22003KT 10SM CLR M01/M01 A3008 RMK AO2 T10121012
KFVX 101315Z AUTO 00000KT 10SM CLR M02/M02 A3008 RMK AO2 T10241024
KFVX 101255Z AUTO 24004KT 10SM CLR M02/M02 A3007 RMK AO2 T10241024
KFVX 101235Z AUTO 24003KT 10SM CLR M03/M03 A3007 RMK AO2 T10271027
KFVX 101215Z AUTO 24004KT 10SM CLR M03/M03 A3006 RMK AO2 T10271027
KFVX 101155Z AUTO 25003KT 10SM SCT060 M03/M03 A3005 RMK AO2 7//// T10301030 10006 21035
KFVX 101135Z AUTO 23003KT 10SM CLR M02/M02 A3004 RMK AO2 T10211021
KFVX 101115Z AUTO 22003KT 10SM CLR M03/M03 A3003 RMK AO2 T10271027
KFVX 101055Z AUTO 24003KT 10SM SCT055 M02/M02 A3001 RMK AO2 T10221022
KFVX 101035Z AUTO 24003KT 10SM BKN055 M02/M02 A3001 RMK AO2 T10221022